sensor_id;sensor_type;location;lat;lon;timestamp;pressure;altitude;pressure_sealevel;temperature;humidity
55755;BME280;41674;52.290;-1.474;2022-10-18T00:00:30;101919.66;;;10.64;69.91
55755;BME280;41674;52.290;-1.474;2022-10-18T00:03:00;101920.86;;;10.74;71.73
55755;BME280;41674;52.290;-1.474;2022-10-18T00:05:29;101917.67;;;10.78;71.43
55755;BME280;41674;52.290;-1.474;2022-10-18T00:08:04;101924.98;;;10.39;72.29
55755;BME280;41674;52.290;-1.474;2022-10-18T00:10:33;101932.40;;;9.75;72.32
55755;BME280;41674;52.290;-1.474;2022-10-18T00:12:58;101933.92;;;8.86;74.50
55755;BME280;41674;52.290;-1.474;2022-10-18T00:15:28;101936.83;;;10.02;68.90
55755;BME280;41674;52.290;-1.474;2022-10-18T00:17:57;101934.36;;;9.75;71.78
55755;BME280;41674;52.290;-1.474;2022-10-18T00:20:27;101934.10;;;10.06;70.62
55755;BME280;41674;52.290;-1.474;2022-10-18T00:22:56;101936.04;;;9.52;72.01
55755;BME280;41674;52.290;-1.474;2022-10-18T00:25:26;101935.12;;;9.82;71.29
55755;BME280;41674;52.290;-1.474;2022-10-18T00:27:56;101935.60;;;9.20;72.97
55755;BME280;41674;52.290;-1.474;2022-10-18T00:30:25;101936.30;;;9.28;71.21
55755;BME280;41674;52.290;-1.474;2022-10-18T00:32:55;101934.37;;;9.39;72.19
55755;BME280;41674;52.290;-1.474;2022-10-18T00:35:25;101934.62;;;9.68;70.31
55755;BME280;41674;52.290;-1.474;2022-10-18T00:37:54;101940.55;;;9.75;70.74
55755;BME280;41674;52.290;-1.474;2022-10-18T00:40:24;101945.80;;;9.30;72.07
55755;BME280;41674;52.290;-1.474;2022-10-18T00:42:54;101953.54;;;9.52;70.85
55755;BME280;41674;52.290;-1.474;2022-10-18T00:45:24;101957.04;;;9.45;71.01
55755;BME280;41674;52.290;-1.474;2022-10-18T00:47:55;101960.82;;;9.31;71.18
55755;BME280;41674;52.290;-1.474;2022-10-18T00:50:25;101959.04;;;8.88;73.72
55755;BME280;41674;52.290;-1.474;2022-10-18T00:52:55;101951.16;;;9.43;72.21
55755;BME280;41674;52.290;-1.474;2022-10-18T00:55:22;101948.94;;;9.65;72.77
55755;BME280;41674;52.290;-1.474;2022-10-18T00:57:52;101951.70;;;9.23;71.97
55755;BME280;41674;52.290;-1.474;2022-10-18T01:00:21;101955.91;;;8.96;72.45
55755;BME280;41674;52.290;-1.474;2022-10-18T01:02:51;101961.37;;;9.34;70.36
55755;BME280;41674;52.290;-1.474;2022-10-18T01:05:21;101962.30;;;9.18;70.53
55755;BME280;41674;52.290;-1.474;2022-10-18T01:08:10;101965.51;;;9.25;70.17
55755;BME280;41674;52.290;-1.474;2022-10-18T01:10:26;101968.62;;;8.81;70.34
55755;BME280;41674;52.290;-1.474;2022-10-18T01:15:25;101967.95;;;9.54;68.84
55755;BME280;41674;52.290;-1.474;2022-10-18T01:17:56;101970.39;;;9.17;70.40
55755;BME280;41674;52.290;-1.474;2022-10-18T01:20:34;101971.66;;;9.06;71.21
55755;BME280;41674;52.290;-1.474;2022-10-18T01:22:52;101977.69;;;8.97;71.45
55755;BME280;41674;52.290;-1.474;2022-10-18T01:25:30;101983.89;;;8.90;72.69
55755;BME280;41674;52.290;-1.474;2022-10-18T01:27:54;101988.09;;;8.18;73.76
55755;BME280;41674;52.290;-1.474;2022-10-18T01:32:49;101984.22;;;8.81;72.59
55755;BME280;41674;52.290;-1.474;2022-10-18T01:35:19;101986.66;;;8.22;75.86
55755;BME280;41674;52.290;-1.474;2022-10-18T01:37:48;101990.90;;;8.96;73.73
55755;BME280;41674;52.290;-1.474;2022-10-18T01:40:19;101995.20;;;8.48;76.57
55755;BME280;41674;52.290;-1.474;2022-10-18T01:45:16;101993.48;;;8.98;70.93
55755;BME280;41674;52.290;-1.474;2022-10-18T01:47:46;102000.57;;;8.32;71.81
55755;BME280;41674;52.290;-1.474;2022-10-18T01:50:15;102003.11;;;8.05;71.94
55755;BME280;41674;52.290;-1.474;2022-10-18T01:52:50;102002.34;;;8.52;70.35
55755;BME280;41674;52.290;-1.474;2022-10-18T01:55:15;102002.52;;;8.51;71.19
55755;BME280;41674;52.290;-1.474;2022-10-18T01:57:51;102004.14;;;8.81;70.58
55755;BME280;41674;52.290;-1.474;2022-10-18T02:00:16;102003.13;;;8.34;72.46
55755;BME280;41674;52.290;-1.474;2022-10-18T02:02:48;102001.39;;;7.75;73.93
55755;BME280;41674;52.290;-1.474;2022-10-18T02:05:20;102003.85;;;8.10;72.72
55755;BME280;41674;52.290;-1.474;2022-10-18T02:07:47;102007.19;;;8.60;70.23
55755;BME280;41674;52.290;-1.474;2022-10-18T02:10:16;102011.24;;;8.33;69.72
55755;BME280;41674;52.290;-1.474;2022-10-18T02:12:44;102017.67;;;7.70;71.49
55755;BME280;41674;52.290;-1.474;2022-10-18T02:15:15;102017.68;;;8.11;72.03
55755;BME280;41674;52.290;-1.474;2022-10-18T02:17:42;102017.49;;;8.06;71.08
55755;BME280;41674;52.290;-1.474;2022-10-18T02:20:13;102019.34;;;8.51;71.47
55755;BME280;41674;52.290;-1.474;2022-10-18T02:22:41;102015.00;;;8.67;70.27
55755;BME280;41674;52.290;-1.474;2022-10-18T02:25:14;102010.15;;;8.23;69.77
55755;BME280;41674;52.290;-1.474;2022-10-18T02:27:40;102009.05;;;7.63;70.17
55755;BME280;41674;52.290;-1.474;2022-10-18T02:30:10;102010.61;;;8.07;69.18
55755;BME280;41674;52.290;-1.474;2022-10-18T02:32:41;102006.52;;;8.38;68.53
55755;BME280;41674;52.290;-1.474;2022-10-18T02:35:15;102011.28;;;8.01;71.39
55755;BME280;41674;52.290;-1.474;2022-10-18T02:37:39;102015.11;;;7.67;70.24
55755;BME280;41674;52.290;-1.474;2022-10-18T02:40:10;102017.97;;;7.73;71.14
55755;BME280;41674;52.290;-1.474;2022-10-18T02:42:42;102016.29;;;7.61;69.93
55755;BME280;41674;52.290;-1.474;2022-10-18T02:45:08;102015.08;;;7.49;70.74
55755;BME280;41674;52.290;-1.474;2022-10-18T02:47:37;102017.65;;;7.25;71.71
55755;BME280;41674;52.290;-1.474;2022-10-18T02:50:08;102025.26;;;7.14;71.07
55755;BME280;41674;52.290;-1.474;2022-10-18T02:52:37;102030.13;;;7.85;69.75
55755;BME280;41674;52.290;-1.474;2022-10-18T02:55:08;102036.60;;;7.47;71.05
55755;BME280;41674;52.290;-1.474;2022-10-18T02:57:36;102038.71;;;7.64;68.75
55755;BME280;41674;52.290;-1.474;2022-10-18T03:00:06;102035.82;;;7.53;70.93
55755;BME280;41674;52.290;-1.474;2022-10-18T03:02:35;102037.24;;;7.21;73.30
55755;BME280;41674;52.290;-1.474;2022-10-18T03:05:05;102040.05;;;6.88;73.19
55755;BME280;41674;52.290;-1.474;2022-10-18T03:07:34;102045.47;;;7.31;71.05
55755;BME280;41674;52.290;-1.474;2022-10-18T03:10:05;102047.29;;;7.12;72.18
55755;BME280;41674;52.290;-1.474;2022-10-18T03:12:34;102045.18;;;7.29;72.14
55755;BME280;41674;52.290;-1.474;2022-10-18T03:15:04;102041.29;;;7.10;72.65
55755;BME280;41674;52.290;-1.474;2022-10-18T03:17:33;102041.85;;;7.74;70.75
55755;BME280;41674;52.290;-1.474;2022-10-18T03:20:05;102048.90;;;7.67;70.73
55755;BME280;41674;52.290;-1.474;2022-10-18T03:22:33;102052.91;;;7.42;71.33
55755;BME280;41674;52.290;-1.474;2022-10-18T03:25:03;102050.36;;;7.88;70.01
55755;BME280;41674;52.290;-1.474;2022-10-18T03:27:32;102046.08;;;7.18;72.83
55755;BME280;41674;52.290;-1.474;2022-10-18T03:30:02;102047.89;;;6.95;72.30
55755;BME280;41674;52.290;-1.474;2022-10-18T03:32:31;102051.25;;;7.11;71.77
55755;BME280;41674;52.290;-1.474;2022-10-18T03:35:01;102051.06;;;7.64;69.71
55755;BME280;41674;52.290;-1.474;2022-10-18T03:37:31;102050.73;;;7.76;69.20
55755;BME280;41674;52.290;-1.474;2022-10-18T03:40:00;102053.13;;;6.71;70.89
55755;BME280;41674;52.290;-1.474;2022-10-18T03:42:30;102053.49;;;7.57;67.81
55755;BME280;41674;52.290;-1.474;2022-10-18T03:45:00;102052.95;;;6.82;69.47
55755;BME280;41674;52.290;-1.474;2022-10-18T03:47:29;102058.13;;;7.34;71.04
55755;BME280;41674;52.290;-1.474;2022-10-18T03:49:59;102059.43;;;7.21;70.31
55755;BME280;41674;52.290;-1.474;2022-10-18T03:52:29;102061.91;;;7.40;70.37
55755;BME280;41674;52.290;-1.474;2022-10-18T03:54:58;102064.06;;;6.91;72.15
55755;BME280;41674;52.290;-1.474;2022-10-18T03:57:28;102063.61;;;7.64;69.89
55755;BME280;41674;52.290;-1.474;2022-10-18T03:59:58;102068.03;;;6.74;73.73
55755;BME280;41674;52.290;-1.474;2022-10-18T04:02:27;102065.34;;;7.45;70.92
55755;BME280;41674;52.290;-1.474;2022-10-18T04:04:57;102067.73;;;6.98;72.86
55755;BME280;41674;52.290;-1.474;2022-10-18T04:07:27;102062.58;;;7.36;70.60
55755;BME280;41674;52.290;-1.474;2022-10-18T04:09:56;102065.40;;;6.34;73.20
55755;BME280;41674;52.290;-1.474;2022-10-18T04:12:26;102067.16;;;6.79;71.28
55755;BME280;41674;52.290;-1.474;2022-10-18T04:14:57;102072.78;;;6.42;73.14
55755;BME280;41674;52.290;-1.474;2022-10-18T04:17:26;102072.08;;;7.39;71.03
55755;BME280;41674;52.290;-1.474;2022-10-18T04:19:55;102077.18;;;7.14;71.71
55755;BME280;41674;52.290;-1.474;2022-10-18T04:22:25;102070.37;;;7.17;70.48
55755;BME280;41674;52.290;-1.474;2022-10-18T04:24:55;102075.94;;;6.94;70.03
55755;BME280;41674;52.290;-1.474;2022-10-18T04:27:24;102083.11;;;6.68;71.47
55755;BME280;41674;52.290;-1.474;2022-10-18T04:29:54;102083.47;;;6.73;70.27
55755;BME280;41674;52.290;-1.474;2022-10-18T04:32:24;102089.25;;;6.69;69.99
55755;BME280;41674;52.290;-1.474;2022-10-18T04:34:54;102086.30;;;7.27;70.19
55755;BME280;41674;52.290;-1.474;2022-10-18T04:37:23;102085.69;;;6.60;70.95
55755;BME280;41674;52.290;-1.474;2022-10-18T04:39:54;102085.34;;;7.11;70.96
55755;BME280;41674;52.290;-1.474;2022-10-18T04:42:23;102087.28;;;7.20;70.77
55755;BME280;41674;52.290;-1.474;2022-10-18T04:44:52;102092.05;;;6.91;72.39
55755;BME280;41674;52.290;-1.474;2022-10-18T04:47:22;102092.37;;;6.88;70.55
55755;BME280;41674;52.290;-1.474;2022-10-18T04:49:52;102095.66;;;7.17;69.86
55755;BME280;41674;52.290;-1.474;2022-10-18T04:52:22;102102.73;;;6.29;71.30
55755;BME280;41674;52.290;-1.474;2022-10-18T04:54:51;102100.14;;;6.92;69.51
55755;BME280;41674;52.290;-1.474;2022-10-18T04:57:21;102098.58;;;6.27;70.27
55755;BME280;41674;52.290;-1.474;2022-10-18T04:59:51;102095.44;;;6.46;71.06
55755;BME280;41674;52.290;-1.474;2022-10-18T05:02:20;102093.45;;;6.52;70.40
55755;BME280;41674;52.290;-1.474;2022-10-18T05:04:50;102098.79;;;6.56;69.90
55755;BME280;41674;52.290;-1.474;2022-10-18T05:07:20;102108.47;;;6.78;69.92
55755;BME280;41674;52.290;-1.474;2022-10-18T05:09:49;102103.87;;;6.39;70.77
55755;BME280;41674;52.290;-1.474;2022-10-18T05:12:19;102098.99;;;7.02;70.09
55755;BME280;41674;52.290;-1.474;2022-10-18T05:14:49;102101.36;;;6.89;71.33
55755;BME280;41674;52.290;-1.474;2022-10-18T05:17:18;102102.43;;;6.99;70.87
55755;BME280;41674;52.290;-1.474;2022-10-18T05:19:48;102107.77;;;6.43;70.83
55755;BME280;41674;52.290;-1.474;2022-10-18T05:22:18;102110.63;;;6.23;69.89
55755;BME280;41674;52.290;-1.474;2022-10-18T05:24:48;102109.75;;;5.75;73.44
55755;BME280;41674;52.290;-1.474;2022-10-18T05:27:17;102109.94;;;6.43;71.91
55755;BME280;41674;52.290;-1.474;2022-10-18T05:29:47;102111.11;;;6.41;71.64
55755;BME280;41674;52.290;-1.474;2022-10-18T05:32:17;102111.23;;;5.91;72.73
55755;BME280;41674;52.290;-1.474;2022-10-18T05:34:47;102113.62;;;5.72;72.37
55755;BME280;41674;52.290;-1.474;2022-10-18T05:37:16;102114.97;;;5.64;73.33
55755;BME280;41674;52.290;-1.474;2022-10-18T05:39:46;102114.70;;;6.33;70.95
55755;BME280;41674;52.290;-1.474;2022-10-18T05:42:16;102117.66;;;5.80;71.64
55755;BME280;41674;52.290;-1.474;2022-10-18T05:44:46;102116.56;;;5.50;72.64
55755;BME280;41674;52.290;-1.474;2022-10-18T05:47:15;102115.67;;;5.89;71.45
55755;BME280;41674;52.290;-1.474;2022-10-18T05:49:48;102112.81;;;5.34;73.03
55755;BME280;41674;52.290;-1.474;2022-10-18T05:52:15;102115.85;;;5.13;74.36
55755;BME280;41674;52.290;-1.474;2022-10-18T05:54:44;102119.41;;;4.81;75.98
55755;BME280;41674;52.290;-1.474;2022-10-18T05:57:14;102117.83;;;6.18;71.77
55755;BME280;41674;52.290;-1.474;2022-10-18T05:59:44;102122.78;;;6.03;71.85
55755;BME280;41674;52.290;-1.474;2022-10-18T06:02:13;102126.20;;;5.85;71.82
55755;BME280;41674;52.290;-1.474;2022-10-18T06:04:43;102127.16;;;6.10;69.51
55755;BME280;41674;52.290;-1.474;2022-10-18T06:07:13;102124.54;;;5.45;71.30
55755;BME280;41674;52.290;-1.474;2022-10-18T06:09:43;102122.96;;;5.51;72.69
55755;BME280;41674;52.290;-1.474;2022-10-18T06:12:17;102121.91;;;4.96;73.11
55755;BME280;41674;52.290;-1.474;2022-10-18T06:14:43;102127.26;;;4.86;74.19
55755;BME280;41674;52.290;-1.474;2022-10-18T06:17:12;102128.91;;;5.79;72.27
55755;BME280;41674;52.290;-1.474;2022-10-18T06:19:41;102136.11;;;5.66;72.64
55755;BME280;41674;52.290;-1.474;2022-10-18T06:22:11;102133.94;;;5.17;73.08
55755;BME280;41674;52.290;-1.474;2022-10-18T06:24:41;102129.90;;;5.30;71.79
55755;BME280;41674;52.290;-1.474;2022-10-18T06:27:10;102131.85;;;4.78;73.02
55755;BME280;41674;52.290;-1.474;2022-10-18T06:29:40;102132.89;;;5.21;73.94
55755;BME280;41674;52.290;-1.474;2022-10-18T06:32:10;102132.20;;;5.32;71.57
55755;BME280;41674;52.290;-1.474;2022-10-18T06:34:40;102136.99;;;4.76;73.78
55755;BME280;41674;52.290;-1.474;2022-10-18T06:37:09;102136.28;;;4.87;73.72
55755;BME280;41674;52.290;-1.474;2022-10-18T06:39:39;102131.07;;;5.24;71.55
55755;BME280;41674;52.290;-1.474;2022-10-18T06:42:09;102133.00;;;5.08;71.89
55755;BME280;41674;52.290;-1.474;2022-10-18T06:44:39;102137.81;;;5.83;68.51
55755;BME280;41674;52.290;-1.474;2022-10-18T06:47:08;102140.78;;;5.70;69.02
55755;BME280;41674;52.290;-1.474;2022-10-18T06:49:38;102140.71;;;5.43;71.49
55755;BME280;41674;52.290;-1.474;2022-10-18T06:52:08;102135.59;;;5.83;69.43
55755;BME280;41674;52.290;-1.474;2022-10-18T06:54:37;102138.07;;;5.50;70.88
55755;BME280;41674;52.290;-1.474;2022-10-18T06:57:07;102140.52;;;5.37;71.37
55755;BME280;41674;52.290;-1.474;2022-10-18T06:59:37;102142.33;;;5.67;70.62
55755;BME280;41674;52.290;-1.474;2022-10-18T07:02:16;102134.54;;;6.02;71.34
55755;BME280;41674;52.290;-1.474;2022-10-18T07:04:36;102130.33;;;5.63;71.42
55755;BME280;41674;52.290;-1.474;2022-10-18T07:07:06;102138.18;;;4.78;73.06
55755;BME280;41674;52.290;-1.474;2022-10-18T07:09:37;102147.12;;;5.11;71.81
55755;BME280;41674;52.290;-1.474;2022-10-18T07:12:05;102161.85;;;4.98;72.95
55755;BME280;41674;52.290;-1.474;2022-10-18T07:14:35;102163.37;;;5.43;72.04
55755;BME280;41674;52.290;-1.474;2022-10-18T07:17:05;102163.64;;;5.42;72.40
55755;BME280;41674;52.290;-1.474;2022-10-18T07:19:34;102161.54;;;5.72;72.20
55755;BME280;41674;52.290;-1.474;2022-10-18T07:22:04;102162.76;;;6.03;72.47
55755;BME280;41674;52.290;-1.474;2022-10-18T07:24:34;102165.28;;;5.73;72.68
55755;BME280;41674;52.290;-1.474;2022-10-18T07:27:04;102166.89;;;5.57;73.84
55755;BME280;41674;52.290;-1.474;2022-10-18T07:29:33;102165.06;;;5.58;73.00
55755;BME280;41674;52.290;-1.474;2022-10-18T07:32:03;102168.86;;;6.29;72.87
55755;BME280;41674;52.290;-1.474;2022-10-18T07:34:33;102172.19;;;6.02;73.24
55755;BME280;41674;52.290;-1.474;2022-10-18T07:37:02;102177.99;;;6.03;71.78
55755;BME280;41674;52.290;-1.474;2022-10-18T07:39:32;102185.11;;;5.95;73.36
55755;BME280;41674;52.290;-1.474;2022-10-18T07:42:02;102191.19;;;5.88;74.53
55755;BME280;41674;52.290;-1.474;2022-10-18T07:44:31;102193.90;;;6.18;74.21
55755;BME280;41674;52.290;-1.474;2022-10-18T07:47:01;102193.79;;;5.41;77.22
55755;BME280;41674;52.290;-1.474;2022-10-18T07:49:32;102191.41;;;5.85;76.46
55755;BME280;41674;52.290;-1.474;2022-10-18T07:52:01;102198.06;;;6.14;74.87
55755;BME280;41674;52.290;-1.474;2022-10-18T07:54:32;102204.00;;;5.80;76.98
55755;BME280;41674;52.290;-1.474;2022-10-18T07:57:00;102207.77;;;5.85;76.60
55755;BME280;41674;52.290;-1.474;2022-10-18T07:59:30;102211.69;;;6.19;75.57
55755;BME280;41674;52.290;-1.474;2022-10-18T08:02:00;102214.69;;;6.06;78.17
55755;BME280;41674;52.290;-1.474;2022-10-18T08:04:29;102225.08;;;6.58;76.66
55755;BME280;41674;52.290;-1.474;2022-10-18T08:06:59;102228.23;;;6.50;76.34
55755;BME280;41674;52.290;-1.474;2022-10-18T08:09:29;102228.57;;;6.78;76.37
55755;BME280;41674;52.290;-1.474;2022-10-18T08:11:59;102230.81;;;6.80;75.98
55755;BME280;41674;52.290;-1.474;2022-10-18T08:14:28;102231.00;;;6.77;78.13
55755;BME280;41674;52.290;-1.474;2022-10-18T08:16:58;102236.58;;;7.47;75.44
55755;BME280;41674;52.290;-1.474;2022-10-18T08:19:28;102239.46;;;7.22;76.03
55755;BME280;41674;52.290;-1.474;2022-10-18T08:21:57;102241.31;;;7.32;76.21
55755;BME280;41674;52.290;-1.474;2022-10-18T08:24:27;102237.65;;;7.60;76.14
55755;BME280;41674;52.290;-1.474;2022-10-18T08:26:57;102233.00;;;7.89;76.03
55755;BME280;41674;52.290;-1.474;2022-10-18T08:29:26;102234.77;;;7.83;76.01
55755;BME280;41674;52.290;-1.474;2022-10-18T08:31:56;102242.55;;;8.08;76.92
55755;BME280;41674;52.290;-1.474;2022-10-18T08:34:25;102251.93;;;8.14;76.21
55755;BME280;41674;52.290;-1.474;2022-10-18T08:36:55;102255.40;;;8.03;77.23
55755;BME280;41674;52.290;-1.474;2022-10-18T08:39:25;102255.42;;;8.19;77.15
55755;BME280;41674;52.290;-1.474;2022-10-18T08:42:09;102263.38;;;7.96;78.81
55755;BME280;41674;52.290;-1.474;2022-10-18T08:44:26;102267.63;;;8.54;78.79
55755;BME280;41674;52.290;-1.474;2022-10-18T08:46:57;102274.41;;;8.33;79.59
55755;BME280;41674;52.290;-1.474;2022-10-18T08:49:27;102284.80;;;7.78;82.38
55755;BME280;41674;52.290;-1.474;2022-10-18T08:51:53;102283.49;;;7.96;84.16
55755;BME280;41674;52.290;-1.474;2022-10-18T08:54:28;102285.92;;;7.65;86.83
55755;BME280;41674;52.290;-1.474;2022-10-18T08:56:59;102277.68;;;8.60;83.40
55755;BME280;41674;52.290;-1.474;2022-10-18T08:59:21;102279.26;;;8.93;82.58
55755;BME280;41674;52.290;-1.474;2022-10-18T09:02:01;102279.88;;;9.21;82.07
55755;BME280;41674;52.290;-1.474;2022-10-18T09:04:30;102283.86;;;9.06;82.33
55755;BME280;41674;52.290;-1.474;2022-10-18T09:06:59;102290.23;;;9.08;85.38
55755;BME280;41674;52.290;-1.474;2022-10-18T09:09:28;102296.82;;;9.26;84.14
55755;BME280;41674;52.290;-1.474;2022-10-18T09:11:54;102297.25;;;9.57;83.40
55755;BME280;41674;52.290;-1.474;2022-10-18T09:14:35;102297.96;;;9.75;83.41
55755;BME280;41674;52.290;-1.474;2022-10-18T09:16:55;102300.65;;;9.82;84.81
55755;BME280;41674;52.290;-1.474;2022-10-18T09:19:27;102300.22;;;10.20;84.25
55755;BME280;41674;52.290;-1.474;2022-10-18T09:21:51;102295.88;;;10.06;85.97
55755;BME280;41674;52.290;-1.474;2022-10-18T09:24:24;102294.88;;;9.87;87.80
55755;BME280;41674;52.290;-1.474;2022-10-18T09:26:48;102295.33;;;10.09;88.37
55755;BME280;41674;52.290;-1.474;2022-10-18T09:29:30;102298.32;;;10.59;87.30
55755;BME280;41674;52.290;-1.474;2022-10-18T09:31:51;102306.16;;;10.10;89.16
55755;BME280;41674;52.290;-1.474;2022-10-18T09:34:24;102300.53;;;10.30;89.81
55755;BME280;41674;52.290;-1.474;2022-10-18T09:36:45;102296.18;;;10.63;88.64
55755;BME280;41674;52.290;-1.474;2022-10-18T09:39:18;102293.47;;;11.63;86.76
55755;BME280;41674;52.290;-1.474;2022-10-18T09:41:47;102293.43;;;10.88;86.95
55755;BME280;41674;52.290;-1.474;2022-10-18T09:44:18;102295.82;;;10.57;87.95
55755;BME280;41674;52.290;-1.474;2022-10-18T09:46:46;102302.37;;;10.70;88.81
55755;BME280;41674;52.290;-1.474;2022-10-18T09:49:17;102304.67;;;11.79;85.72
55755;BME280;41674;52.290;-1.474;2022-10-18T09:54:20;102303.50;;;11.63;86.97
55755;BME280;41674;52.290;-1.474;2022-10-18T09:56:45;102307.11;;;11.92;85.13
55755;BME280;41674;52.290;-1.474;2022-10-18T09:59:30;102309.61;;;11.60;86.88
55755;BME280;41674;52.290;-1.474;2022-10-18T10:04:10;102308.51;;;12.05;83.01
55755;BME280;41674;52.290;-1.474;2022-10-18T10:06:48;102312.60;;;12.33;85.03
55755;BME280;41674;52.290;-1.474;2022-10-18T10:09:14;102315.45;;;11.92;86.87
55755;BME280;41674;52.290;-1.474;2022-10-18T10:11:44;102321.47;;;12.34;86.26
55755;BME280;41674;52.290;-1.474;2022-10-18T10:14:13;102317.66;;;12.18;87.77
55755;BME280;41674;52.290;-1.474;2022-10-18T10:16:47;102313.96;;;12.52;86.25
55755;BME280;41674;52.290;-1.474;2022-10-18T10:19:16;102312.37;;;12.74;85.56
55755;BME280;41674;52.290;-1.474;2022-10-18T10:21:39;102302.31;;;13.25;83.81
55755;BME280;41674;52.290;-1.474;2022-10-18T10:24:18;102300.99;;;12.91;83.62
55755;BME280;41674;52.290;-1.474;2022-10-18T10:26:37;102300.04;;;13.53;81.67
55755;BME280;41674;52.290;-1.474;2022-10-18T10:31:36;102303.60;;;11.49;88.61
55755;BME280;41674;52.290;-1.474;2022-10-18T10:34:16;102305.43;;;12.23;86.56
55755;BME280;41674;52.290;-1.474;2022-10-18T10:36:45;102307.15;;;12.51;85.83
55755;BME280;41674;52.290;-1.474;2022-10-18T10:39:06;102303.41;;;12.67;84.11
55755;BME280;41674;52.290;-1.474;2022-10-18T10:41:34;102302.76;;;10.60;95.81
55755;BME280;41674;52.290;-1.474;2022-10-18T10:44:13;102303.84;;;12.32;91.30
55755;BME280;41674;52.290;-1.474;2022-10-18T10:46:34;102293.58;;;12.77;87.99
55755;BME280;41674;52.290;-1.474;2022-10-18T10:49:04;102297.75;;;12.86;85.76
55755;BME280;41674;52.290;-1.474;2022-10-18T10:51:35;102297.49;;;13.10;86.33
55755;BME280;41674;52.290;-1.474;2022-10-18T10:54:03;102297.19;;;13.13;85.46
55755;BME280;41674;52.290;-1.474;2022-10-18T10:56:35;102294.85;;;13.81;82.06
55755;BME280;41674;52.290;-1.474;2022-10-18T10:59:08;102294.65;;;13.01;83.67
55755;BME280;41674;52.290;-1.474;2022-10-18T11:01:32;102295.08;;;13.33;80.62
55755;BME280;41674;52.290;-1.474;2022-10-18T11:04:08;102286.93;;;13.63;79.89
55755;BME280;41674;52.290;-1.474;2022-10-18T11:06:42;102281.68;;;13.18;80.54
55755;BME280;41674;52.290;-1.474;2022-10-18T11:11:32;102285.56;;;13.27;78.90
55755;BME280;41674;52.290;-1.474;2022-10-18T11:14:04;102287.70;;;13.28;79.93
55755;BME280;41674;52.290;-1.474;2022-10-18T11:16:32;102293.14;;;12.02;87.00
55755;BME280;41674;52.290;-1.474;2022-10-18T11:18:59;102291.29;;;14.26;79.35
55755;BME280;41674;52.290;-1.474;2022-10-18T11:21:29;102290.57;;;14.79;77.32
55755;BME280;41674;52.290;-1.474;2022-10-18T11:23:57;102283.13;;;13.52;82.34
55755;BME280;41674;52.290;-1.474;2022-10-18T11:26:37;102270.50;;;14.30;76.54
55755;BME280;41674;52.290;-1.474;2022-10-18T11:29:07;102261.65;;;15.37;72.97
55755;BME280;41674;52.290;-1.474;2022-10-18T11:31:31;102263.41;;;15.59;71.87
55755;BME280;41674;52.290;-1.474;2022-10-18T11:34:06;102260.71;;;15.33;70.61
55755;BME280;41674;52.290;-1.474;2022-10-18T11:36:31;102260.71;;;15.14;71.74
55755;BME280;41674;52.290;-1.474;2022-10-18T11:38:57;102259.91;;;15.25;69.96
55755;BME280;41674;52.290;-1.474;2022-10-18T11:41:30;102259.37;;;14.92;71.47
55755;BME280;41674;52.290;-1.474;2022-10-18T11:43:57;102263.18;;;15.79;68.70
55755;BME280;41674;52.290;-1.474;2022-10-18T11:46:34;102262.02;;;14.68;71.70
55755;BME280;41674;52.290;-1.474;2022-10-18T11:49:02;102262.61;;;14.83;72.17
55755;BME280;41674;52.290;-1.474;2022-10-18T11:51:31;102260.59;;;15.76;70.34
55755;BME280;41674;52.290;-1.474;2022-10-18T11:54:04;102258.16;;;15.43;70.97
55755;BME280;41674;52.290;-1.474;2022-10-18T11:56:26;102258.46;;;15.55;67.44
55755;BME280;41674;52.290;-1.474;2022-10-18T11:59:03;102253.44;;;15.51;66.83
55755;BME280;41674;52.290;-1.474;2022-10-18T12:01:26;102248.16;;;15.27;67.99
55755;BME280;41674;52.290;-1.474;2022-10-18T12:03:56;102243.76;;;14.82;69.20
55755;BME280;41674;52.290;-1.474;2022-10-18T12:06:22;102238.64;;;15.64;67.50
55755;BME280;41674;52.290;-1.474;2022-10-18T12:08:52;102237.98;;;15.51;65.65
55755;BME280;41674;52.290;-1.474;2022-10-18T12:11:23;102232.96;;;16.03;61.13
55755;BME280;41674;52.290;-1.474;2022-10-18T12:13:54;102237.54;;;15.93;62.47
55755;BME280;41674;52.290;-1.474;2022-10-18T12:16:21;102230.85;;;16.95;61.11
55755;BME280;41674;52.290;-1.474;2022-10-18T12:18:52;102231.34;;;16.82;60.68
55755;BME280;41674;52.290;-1.474;2022-10-18T12:21:20;102227.69;;;17.92;57.74
55755;BME280;41674;52.290;-1.474;2022-10-18T12:23:51;102222.95;;;16.91;55.57
55755;BME280;41674;52.290;-1.474;2022-10-18T12:26:17;102228.69;;;16.89;56.55
55755;BME280;41674;52.290;-1.474;2022-10-18T12:28:54;102228.34;;;17.37;56.43
55755;BME280;41674;52.290;-1.474;2022-10-18T12:31:21;102226.95;;;17.22;56.72
55755;BME280;41674;52.290;-1.474;2022-10-18T12:33:47;102218.10;;;19.02;52.43
55755;BME280;41674;52.290;-1.474;2022-10-18T12:36:26;102221.79;;;18.76;49.13
55755;BME280;41674;52.290;-1.474;2022-10-18T12:38:45;102220.34;;;19.40;48.71
55755;BME280;41674;52.290;-1.474;2022-10-18T12:41:19;102219.69;;;19.08;52.09
55755;BME280;41674;52.290;-1.474;2022-10-18T12:43:51;102217.26;;;19.90;48.81
55755;BME280;41674;52.290;-1.474;2022-10-18T12:46:13;102214.24;;;20.09;48.52
55755;BME280;41674;52.290;-1.474;2022-10-18T12:48:44;102209.32;;;18.67;48.81
55755;BME280;41674;52.290;-1.474;2022-10-18T12:51:14;102214.38;;;20.48;46.52
55755;BME280;41674;52.290;-1.474;2022-10-18T12:53:42;102214.38;;;20.64;46.92
55755;BME280;41674;52.290;-1.474;2022-10-18T12:58:40;102213.19;;;20.09;47.67
55755;BME280;41674;52.290;-1.474;2022-10-18T13:01:10;102205.65;;;21.23;42.23
55755;BME280;41674;52.290;-1.474;2022-10-18T13:03:50;102208.87;;;21.80;43.23
55755;BME280;41674;52.290;-1.474;2022-10-18T13:06:09;102219.14;;;19.52;48.05
55755;BME280;41674;52.290;-1.474;2022-10-18T13:08:40;102210.30;;;22.55;43.06
55755;BME280;41674;52.290;-1.474;2022-10-18T13:13:50;102199.95;;;23.33;40.20
55755;BME280;41674;52.290;-1.474;2022-10-18T13:18:46;102202.03;;;21.47;41.79
55755;BME280;41674;52.290;-1.474;2022-10-18T13:21:13;102193.34;;;23.58;39.25
55755;BME280;41674;52.290;-1.474;2022-10-18T13:23:45;102193.95;;;22.71;39.52